Time;durP1;ratioP1;P1;durP2;ratioP2;P2;SDS_P1;SDS_P2;PMS_P1;PMS_P2;Temp;Humidity;BMP_temperature;BMP_pressure;BME280_temperature;BME280_humidity;BME280_pressure;Samples;Min_cycle;Max_cycle;Signal;HPM_P1;HPM_P2
2021/12/11 00:02:22;;;;;;;62.77;27.77;;;1.80;99.90;;;;;;4981695;28;20777;-66
2021/12/11 00:04:54;;;;;;;58.67;29.07;;;1.80;99.90;;;;;;4978641;28;20302;-66
2021/12/11 00:07:22;;;;;;;65.37;28.37;;;1.80;99.90;;;;;;4974968;28;20233;-66
2021/12/11 00:09:54;;;;;;;64.80;28.40;;;1.80;99.90;;;;;;4975288;28;20255;-65
2021/12/11 00:12:26;;;;;;;67.80;28.97;;;1.90;99.90;;;;;;4980236;28;20291;-66
2021/12/11 00:14:58;;;;;;;67.90;28.57;;;1.80;99.90;;;;;;4984548;28;20299;-66
2021/12/11 00:17:28;;;;;;;67.03;28.53;;;1.80;99.90;;;;;;4980726;28;20720;-65
2021/12/11 00:19:56;;;;;;;58.30;26.80;;;1.80;99.90;;;;;;4974405;28;20266;-66
2021/12/11 00:22:29;;;;;;;64.07;29.43;;;1.80;99.90;;;;;;4981433;28;20243;-66
2021/12/11 00:25:00;;;;;;;55.87;25.40;;;1.80;99.90;;;;;;4992658;28;20215;-66
2021/12/11 00:27:29;;;;;;;52.83;24.10;;;1.80;99.90;;;;;;4991846;28;20238;-66
2021/12/11 00:29:57;;;;;;;53.20;25.17;;;1.80;99.90;;;;;;4984916;28;20385;-67
2021/12/11 00:32:27;;;;;;;59.97;25.97;;;1.80;99.90;;;;;;4977266;28;20216;-67
2021/12/11 00:35:00;;;;;;;60.33;25.07;;;1.70;99.90;;;;;;4984709;28;20339;-66
2021/12/11 00:37:27;;;;;;;60.67;27.87;;;1.70;99.90;;;;;;4990315;28;20298;-65
2021/12/11 00:39:56;;;;;;;59.70;26.23;;;1.70;99.90;;;;;;4975059;28;20676;-66
2021/12/11 00:42:33;;;;;;;60.07;26.63;;;1.60;99.90;;;;;;4989596;28;20250;-66
2021/12/11 00:45:01;;;;;;;66.03;27.83;;;1.60;99.90;;;;;;4977903;28;20200;-66
2021/12/11 00:47:33;;;;;;;68.70;28.03;;;1.60;99.90;;;;;;4989785;28;20235;-66
2021/12/11 00:50:04;;;;;;;72.77;28.83;;;1.70;99.90;;;;;;4978809;28;20720;-66
2021/12/11 00:52:34;;;;;;;69.73;27.07;;;1.70;99.90;;;;;;4985596;28;20204;-67
2021/12/11 00:55:04;;;;;;;70.90;28.23;;;1.80;99.90;;;;;;4978537;28;20318;-66
2021/12/11 00:57:32;;;;;;;61.43;24.87;;;1.80;99.90;;;;;;4983624;28;20279;-65
2021/12/11 01:00:02;;;;;;;62.37;27.43;;;1.80;99.90;;;;;;4993751;28;20266;-65
2021/12/11 01:02:29;;;;;;;67.70;26.83;;;1.80;99.90;;;;;;4979462;28;20633;-66
2021/12/11 01:04:56;;;;;;;73.43;29.13;;;1.80;99.90;;;;;;4978519;28;20252;-66
2021/12/11 01:07:29;;;;;;;67.07;27.40;;;1.70;99.90;;;;;;4977516;28;20216;-66
2021/12/11 01:10:00;;;;;;;70.53;27.20;;;1.70;99.90;;;;;;4975927;28;20207;-66
2021/12/11 01:12:37;;;;;;;71.17;27.67;;;1.60;99.90;;;;;;4966500;28;20623;-66
2021/12/11 01:15:14;;;;;;;64.40;25.80;;;1.60;99.90;;;;;;4976484;28;20200;-66
2021/12/11 01:17:47;;;;;;;60.20;25.13;;;1.60;99.90;;;;;;4976098;28;20216;-66
2021/12/11 01:20:20;;;;;;;56.97;23.73;;;1.50;99.90;;;;;;4976250;28;20240;-66
2021/12/11 01:22:49;;;;;;;62.30;25.10;;;1.50;99.90;;;;;;4976002;28;20308;-64
2021/12/11 01:25:19;;;;;;;60.50;24.47;;;1.50;99.90;;;;;;4975580;28;20693;-66
2021/12/11 01:27:50;;;;;;;63.67;25.77;;;1.40;99.90;;;;;;4976597;28;20665;-65
2021/12/11 01:30:22;;;;;;;54.90;23.90;;;1.40;99.90;;;;;;4976174;28;20184;-66
2021/12/11 01:32:49;;;;;;;53.10;23.90;;;1.30;99.90;;;;;;4976929;28;20657;-66
2021/12/11 01:35:17;;;;;;;65.93;25.93;;;1.30;99.90;;;;;;4976016;28;20689;-66
2021/12/11 01:37:44;;;;;;;55.47;23.20;;;1.30;99.90;;;;;;4975429;28;20661;-67
2021/12/11 01:40:15;;;;;;;59.23;24.33;;;1.30;99.90;;;;;;4976023;28;20209;-66
2021/12/11 01:42:42;;;;;;;59.40;24.80;;;1.30;99.90;;;;;;4962685;28;20251;-65
2021/12/11 01:45:12;;;;;;;61.07;25.10;;;1.30;99.90;;;;;;4976584;28;20299;-67
2021/12/11 01:47:45;;;;;;;62.07;24.40;;;1.30;99.90;;;;;;4976665;28;20744;-67
2021/12/11 01:50:16;;;;;;;63.10;24.70;;;1.30;99.90;;;;;;4977990;28;20724;-66
2021/12/11 01:52:47;;;;;;;60.77;25.10;;;1.40;99.90;;;;;;4991085;28;20259;-67
2021/12/11 01:55:23;;;;;;;60.03;25.83;;;1.50;99.90;;;;;;4989847;28;20584;-66
2021/12/11 01:57:54;;;;;;;59.07;25.77;;;1.50;99.90;;;;;;4983215;28;20344;-67
2021/12/11 02:00:24;;;;;;;64.13;24.00;;;1.60;99.90;;;;;;4992461;28;20205;-66
2021/12/11 02:02:55;;;;;;;52.50;24.30;;;1.60;99.90;;;;;;4982224;28;20236;-66
2021/12/11 02:05:25;;;;;;;59.37;23.63;;;1.60;99.90;;;;;;4995723;28;20653;-66
2021/12/11 02:07:56;;;;;;;59.30;23.70;;;1.70;99.90;;;;;;4988263;28;20288;-67
2021/12/11 02:10:28;;;;;;;62.67;24.97;;;1.70;99.90;;;;;;4970111;28;20241;-65
2021/12/11 02:12:56;;;;;;;56.07;23.13;;;1.70;99.90;;;;;;4982746;28;20207;-66
2021/12/11 02:15:31;;;;;;;55.37;23.47;;;1.70;99.90;;;;;;4975036;28;20208;-65
2021/12/11 02:18:08;;;;;;;58.37;24.97;;;1.70;99.90;;;;;;4980078;28;20216;-65
2021/12/11 02:20:41;;;;;;;61.83;24.53;;;1.70;99.90;;;;;;4962442;28;20223;-66
2021/12/11 02:23:09;;;;;;;60.17;23.33;;;1.70;99.90;;;;;;4988755;28;20731;-65
2021/12/11 02:25:41;;;;;;;60.93;24.93;;;1.70;99.90;;;;;;4983225;28;20274;-67
2021/12/11 02:28:13;;;;;;;56.00;23.37;;;1.70;99.90;;;;;;4979367;28;20634;-66
2021/12/11 02:30:45;;;;;;;55.30;24.40;;;1.70;99.90;;;;;;4987548;28;20205;-65
2021/12/11 02:33:16;;;;;;;60.23;24.53;;;1.70;99.90;;;;;;4986901;28;20299;-66
2021/12/11 02:35:47;;;;;;;62.37;23.57;;;1.70;99.90;;;;;;4985225;28;20200;-66
2021/12/11 02:38:21;;;;;;;54.73;22.53;;;1.70;99.90;;;;;;4985022;28;20272;-66
2021/12/11 02:40:55;;;;;;;61.90;24.60;;;1.80;99.90;;;;;;4982514;28;20303;-66
2021/12/11 02:43:28;;;;;;;59.23;24.50;;;1.70;99.90;;;;;;4984840;28;20243;-66
2021/12/11 02:46:01;;;;;;;61.77;24.93;;;1.70;99.90;;;;;;4993397;28;20633;-66
2021/12/11 02:48:33;;;;;;;58.33;24.57;;;1.70;99.90;;;;;;4981951;28;20315;-67
2021/12/11 02:51:09;;;;;;;62.73;25.20;;;1.80;99.90;;;;;;4980433;28;20303;-66
2021/12/11 02:53:44;;;;;;;58.83;24.93;;;1.70;99.90;;;;;;4982888;28;20203;-66
2021/12/11 02:56:14;;;;;;;54.87;23.97;;;1.80;99.90;;;;;;4991785;28;20242;-65
2021/12/11 02:58:44;;;;;;;57.40;23.07;;;1.70;99.90;;;;;;4981548;28;20270;-66
2021/12/11 03:01:21;;;;;;;62.57;23.43;;;1.80;99.90;;;;;;4982012;28;20270;-66
2021/12/11 03:03:53;;;;;;;55.37;23.67;;;1.70;99.90;;;;;;4988058;28;20203;-65
2021/12/11 03:06:24;;;;;;;58.87;24.10;;;1.80;99.90;;;;;;4993886;28;20250;-66
2021/12/11 03:08:56;;;;;;;52.33;23.60;;;1.70;99.90;;;;;;4987066;28;20247;-67
2021/12/11 03:11:26;;;;;;;61.67;24.30;;;1.70;99.90;;;;;;4980744;28;20552;-67
2021/12/11 03:13:55;;;;;;;60.20;24.53;;;1.60;99.90;;;;;;4977459;28;20291;-66
2021/12/11 03:16:25;;;;;;;54.17;23.50;;;1.60;99.90;;;;;;4987762;28;20212;-66
2021/12/11 03:18:53;;;;;;;52.23;23.33;;;1.60;99.90;;;;;;4983918;28;20228;-65
2021/12/11 03:21:20;;;;;;;51.13;23.13;;;1.60;99.90;;;;;;4980601;28;20299;-66
2021/12/11 03:23:47;;;;;;;63.80;23.80;;;1.60;99.90;;;;;;4990591;28;20299;-67
2021/12/11 03:26:16;;;;;;;57.77;22.97;;;1.50;99.90;;;;;;4973835;28;20218;-66
2021/12/11 03:28:43;;;;;;;52.87;22.13;;;1.50;99.90;;;;;;4982166;28;20283;-66
2021/12/11 03:31:11;;;;;;;53.40;22.37;;;1.40;99.90;;;;;;4987034;28;20616;-66
2021/12/11 03:33:42;;;;;;;66.30;22.90;;;1.30;99.90;;;;;;4978902;28;20248;-66
2021/12/11 03:36:11;;;;;;;55.23;21.83;;;1.30;99.90;;;;;;4984300;28;20294;-66
2021/12/11 03:38:42;;;;;;;56.57;22.50;;;1.30;99.90;;;;;;4979884;28;20320;-65
2021/12/11 03:41:09;;;;;;;52.17;21.37;;;1.30;99.90;;;;;;4985722;28;20840;-66
2021/12/11 03:43:38;;;;;;;50.53;21.20;;;1.30;99.90;;;;;;4993051;28;20295;-65
2021/12/11 03:46:08;;;;;;;48.03;20.47;;;1.20;99.90;;;;;;4980438;28;20294;-68
2021/12/11 03:48:40;;;;;;;44.63;20.17;;;1.20;99.90;;;;;;4979083;28;20209;-66
2021/12/11 03:51:11;;;;;;;43.67;19.70;;;1.10;99.90;;;;;;4973613;28;20215;-66
2021/12/11 03:53:39;;;;;;;49.80;20.83;;;1.00;99.90;;;;;;4980975;28;20214;-66
2021/12/11 03:56:08;;;;;;;48.33;19.63;;;0.90;99.90;;;;;;4983923;28;20800;-66
2021/12/11 03:58:36;;;;;;;48.73;20.17;;;0.90;99.90;;;;;;4979265;28;20334;-65
2021/12/11 04:01:08;;;;;;;48.77;20.33;;;0.80;99.90;;;;;;4978614;28;20228;-66
2021/12/11 04:03:38;;;;;;;47.63;21.23;;;0.80;99.90;;;;;;4991298;28;20208;-65
2021/12/11 04:06:08;;;;;;;43.53;20.13;;;0.80;99.90;;;;;;4992348;28;20235;-65
2021/12/11 04:08:40;;;;;;;45.77;19.77;;;0.80;99.90;;;;;;4983069;28;20236;-65
2021/12/11 04:11:08;;;;;;;38.20;17.77;;;0.80;99.90;;;;;;4972864;28;20213;-65
2021/12/11 04:13:35;;;;;;;42.43;18.20;;;0.80;99.90;;;;;;4985981;28;20244;-65
2021/12/11 04:16:05;;;;;;;43.23;19.37;;;0.80;99.90;;;;;;4983422;28;20671;-65
2021/12/11 04:18:32;;;;;;;47.10;19.73;;;0.80;99.90;;;;;;4979446;28;20362;-66
2021/12/11 04:21:00;;;;;;;43.97;19.97;;;0.80;99.90;;;;;;4981689;28;20303;-66
2021/12/11 04:23:27;;;;;;;48.27;20.37;;;0.90;99.90;;;;;;4991685;28;20295;-65
2021/12/11 04:25:56;;;;;;;46.80;20.60;;;0.90;99.90;;;;;;4981002;28;20697;-65
2021/12/11 04:28:25;;;;;;;44.70;20.27;;;1.00;99.90;;;;;;4976326;28;20207;-65
2021/12/11 04:31:01;;;;;;;50.03;19.60;;;1.00;99.90;;;;;;4987177;28;20727;-64
2021/12/11 04:33:30;;;;;;;41.40;19.43;;;1.10;99.90;;;;;;4991765;28;20945;-65
2021/12/11 04:35:57;;;;;;;44.97;18.77;;;1.10;99.90;;;;;;4983829;28;20306;-66
2021/12/11 04:38:24;;;;;;;42.37;18.17;;;1.10;99.90;;;;;;4982107;28;20224;-65
2021/12/11 04:40:55;;;;;;;42.97;19.03;;;1.10;99.90;;;;;;4976885;28;20255;-66
2021/12/11 04:43:24;;;;;;;42.07;18.73;;;1.10;99.90;;;;;;4991491;28;20200;-65
2021/12/11 04:45:54;;;;;;;39.27;18.07;;;1.10;99.90;;;;;;4990849;28;20200;-66
2021/12/11 04:48:31;;;;;;;41.43;18.63;;;1.20;99.90;;;;;;4981124;28;20204;-66
2021/12/11 04:51:04;;;;;;;41.43;18.30;;;1.20;99.90;;;;;;4972042;28;20224;-66
2021/12/11 04:53:52;;;;;;;40.33;19.00;;;1.20;99.90;;;;;;4979543;28;20214;-66
2021/12/11 04:56:44;;;;;;;35.80;17.63;;;1.20;99.90;;;;;;4985967;28;20314;-66
2021/12/11 04:59:29;;;;;;;44.53;18.77;;;1.20;99.90;;;;;;4983866;28;20242;-66
2021/12/11 05:02:09;;;;;;;38.57;18.27;;;1.20;99.90;;;;;;4991972;28;20212;-65
2021/12/11 05:04:54;;;;;;;36.00;17.73;;;1.20;99.90;;;;;;4977996;28;20204;-66
2021/12/11 05:07:31;;;;;;;39.27;18.03;;;1.20;99.90;;;;;;4981680;28;20732;-66
2021/12/11 05:10:06;;;;;;;38.17;17.13;;;1.20;99.90;;;;;;4980825;28;20222;-65
2021/12/11 05:12:35;;;;;;;43.47;18.17;;;1.30;99.90;;;;;;4991131;28;20598;-66
2021/12/11 05:15:08;;;;;;;37.33;17.63;;;1.30;99.90;;;;;;4977618;28;20263;-65
2021/12/11 05:17:35;;;;;;;40.73;18.27;;;1.30;99.90;;;;;;4984826;28;20220;-66
2021/12/11 05:20:04;;;;;;;41.53;18.93;;;1.30;99.90;;;;;;4973361;28;20228;-65
2021/12/11 05:22:33;;;;;;;42.20;18.23;;;1.20;99.90;;;;;;4991715;28;20595;-66
2021/12/11 05:25:00;;;;;;;40.97;18.83;;;1.30;99.90;;;;;;4990923;28;20208;-66
2021/12/11 05:27:27;;;;;;;40.00;17.93;;;1.30;99.90;;;;;;4981492;28;20208;-66
2021/12/11 05:29:54;;;;;;;39.03;18.90;;;1.30;99.90;;;;;;4984508;28;20295;-66
2021/12/11 05:32:24;;;;;;;45.40;19.47;;;1.40;99.90;;;;;;4977048;28;20622;-66
2021/12/11 05:34:52;;;;;;;40.97;19.23;;;1.30;99.90;;;;;;4975548;28;20690;-67
2021/12/11 05:37:19;;;;;;;49.63;19.23;;;1.40;99.90;;;;;;4985831;28;20303;-67
2021/12/11 05:39:47;;;;;;;44.33;18.83;;;1.40;99.90;;;;;;4972666;28;20308;-67
2021/12/11 05:42:15;;;;;;;45.77;20.00;;;1.40;99.90;;;;;;4991406;28;20634;-65
2021/12/11 05:44:43;;;;;;;43.73;20.50;;;1.40;99.90;;;;;;4990726;28;20208;-66
2021/12/11 05:47:11;;;;;;;43.40;19.90;;;1.40;99.90;;;;;;4992406;28;20231;-66
2021/12/11 05:49:40;;;;;;;40.70;19.50;;;1.50;99.90;;;;;;4979089;28;20254;-66
2021/12/11 05:52:09;;;;;;;46.03;19.10;;;1.50;99.90;;;;;;4985387;28;20689;-66
2021/12/11 05:54:38;;;;;;;39.83;18.60;;;1.60;99.90;;;;;;4978135;28;20205;-65
2021/12/11 05:57:09;;;;;;;41.17;19.43;;;1.60;99.90;;;;;;4986081;28;20244;-65
2021/12/11 05:59:38;;;;;;;39.07;17.30;;;1.60;99.90;;;;;;4990453;28;20219;-66
2021/12/11 06:02:11;;;;;;;41.27;17.93;;;1.60;99.90;;;;;;4984488;28;20294;-66
2021/12/11 06:04:41;;;;;;;41.53;18.00;;;1.60;99.90;;;;;;4984127;28;20240;-65
2021/12/11 06:07:10;;;;;;;42.37;19.57;;;1.60;99.90;;;;;;4994109;28;20299;-65
2021/12/11 06:09:40;;;;;;;36.33;18.17;;;1.60;99.90;;;;;;4976191;28;20787;-65
2021/12/11 06:12:11;;;;;;;40.40;19.20;;;1.60;99.90;;;;;;4994777;28;20208;-65
2021/12/11 06:14:40;;;;;;;43.07;18.67;;;1.60;99.90;;;;;;4980996;28;20327;-66
2021/12/11 06:17:10;;;;;;;39.83;19.07;;;1.70;99.90;;;;;;4979690;28;20306;-67
2021/12/11 06:19:38;;;;;;;44.53;19.17;;;1.70;99.90;;;;;;4986870;28;20227;-66
2021/12/11 06:22:06;;;;;;;40.17;19.23;;;1.70;99.90;;;;;;4993299;28;20295;-67
2021/12/11 06:24:33;;;;;;;44.73;21.37;;;1.70;99.90;;;;;;4994353;28;20661;-65
2021/12/11 06:27:00;;;;;;;50.10;20.23;;;1.60;99.90;;;;;;4978299;28;20231;-66
2021/12/11 06:29:29;;;;;;;44.50;19.53;;;1.60;99.90;;;;;;4983539;28;20510;-67
2021/12/11 06:31:56;;;;;;;43.90;19.80;;;1.60;99.90;;;;;;4976168;28;20636;-66
2021/12/11 06:34:24;;;;;;;45.57;20.20;;;1.60;99.90;;;;;;4984094;28;20846;-66
2021/12/11 06:36:51;;;;;;;44.23;19.90;;;1.50;99.90;;;;;;4975692;28;20580;-65
2021/12/11 06:39:22;;;;;;;51.67;22.00;;;1.50;99.90;;;;;;4973863;28;20233;-67
2021/12/11 06:41:51;;;;;;;48.20;19.87;;;1.50;99.90;;;;;;4974082;28;20622;-67
2021/12/11 06:44:18;;;;;;;47.13;18.80;;;1.50;99.90;;;;;;4974328;28;20404;-66
2021/12/11 06:46:52;;;;;;;44.47;19.67;;;1.50;99.90;;;;;;4972833;28;20232;-67
2021/12/11 06:49:19;;;;;;;49.13;20.90;;;1.50;99.90;;;;;;4973143;28;20295;-67
2021/12/11 06:51:45;;;;;;;52.53;20.57;;;1.50;99.90;;;;;;4974130;28;20637;-68
2021/12/11 06:54:12;;;;;;;42.93;19.57;;;1.60;99.90;;;;;;4967590;28;20211;-66
2021/12/11 06:56:41;;;;;;;44.83;20.80;;;1.60;99.90;;;;;;4972534;28;20323;-66
2021/12/11 06:59:09;;;;;;;46.37;19.40;;;1.60;99.90;;;;;;4973313;28;20223;-67
2021/12/11 07:01:36;;;;;;;47.13;19.63;;;1.60;99.90;;;;;;4973248;28;20216;-66
2021/12/11 07:04:07;;;;;;;43.23;19.33;;;1.60;99.90;;;;;;4973080;28;20220;-66
2021/12/11 07:06:35;;;;;;;49.27;20.53;;;1.60;99.90;;;;;;4973592;28;20609;-67
2021/12/11 07:09:04;;;;;;;44.90;20.07;;;1.60;99.90;;;;;;4973595;28;20251;-66
2021/12/11 07:11:32;;;;;;;41.07;18.83;;;1.60;99.90;;;;;;4973154;28;20216;-66
2021/12/11 07:13:59;;;;;;;39.77;19.13;;;1.60;99.90;;;;;;4973280;28;20661;-67
2021/12/11 07:16:26;;;;;;;38.73;18.67;;;1.60;99.90;;;;;;4966283;28;20648;-66
2021/12/11 07:18:53;;;;;;;43.80;18.67;;;1.50;99.90;;;;;;4969973;28;20224;-65
2021/12/11 07:21:22;;;;;;;45.23;19.80;;;1.50;99.90;;;;;;4972909;28;20204;-66
2021/12/11 07:23:49;;;;;;;43.13;19.37;;;1.50;99.90;;;;;;4971946;28;20213;-68
2021/12/11 07:26:22;;;;;;;42.33;18.90;;;1.50;99.90;;;;;;4971313;28;20212;-67
2021/12/11 07:28:52;;;;;;;44.23;20.17;;;1.60;99.90;;;;;;4972582;28;20208;-66
2021/12/11 07:31:21;;;;;;;43.33;19.40;;;1.70;99.90;;;;;;4971708;28;20213;-66
2021/12/11 07:33:49;;;;;;;47.63;19.93;;;1.70;99.90;;;;;;4972614;28;20733;-66
2021/12/11 07:36:16;;;;;;;43.23;19.97;;;1.80;99.90;;;;;;4972168;28;20292;-66
2021/12/11 07:38:45;;;;;;;51.13;20.87;;;1.80;99.90;;;;;;4973060;28;20272;-65
2021/12/11 07:41:14;;;;;;;46.20;19.93;;;1.90;99.90;;;;;;4969106;28;20307;-66
2021/12/11 07:43:42;;;;;;;40.13;18.73;;;2.00;99.90;;;;;;4964380;28;20215;-66
2021/12/11 07:46:14;;;;;;;64.20;28.53;;;2.00;99.90;;;;;;4962874;28;20209;-65
2021/12/11 07:48:42;;;;;;;49.60;22.00;;;2.00;99.90;;;;;;4964159;28;20260;-66
2021/12/11 07:51:09;;;;;;;48.30;23.30;;;2.10;99.90;;;;;;4969271;28;20240;-65
2021/12/11 07:53:36;;;;;;;48.63;22.83;;;2.20;99.90;;;;;;4972506;28;20295;-65
2021/12/11 07:56:06;;;;;;;54.83;23.93;;;2.30;99.90;;;;;;4971666;28;20323;-65
2021/12/11 07:58:34;;;;;;;47.57;23.73;;;2.40;99.90;;;;;;4972664;28;20268;-67
2021/12/11 08:01:04;;;;;;;44.27;21.43;;;2.40;99.90;;;;;;4972445;28;20361;-65
2021/12/11 08:03:32;;;;;;;50.47;22.00;;;2.40;99.90;;;;;;4974167;28;20653;-67
2021/12/11 08:06:00;;;;;;;44.53;20.63;;;2.40;99.90;;;;;;4972230;28;20252;-66
2021/12/11 08:08:27;;;;;;;47.10;21.13;;;2.40;99.90;;;;;;4972366;28;20220;-68
2021/12/11 08:10:57;;;;;;;46.60;20.87;;;2.50;99.90;;;;;;4973829;28;20255;-67
2021/12/11 08:13:26;;;;;;;44.73;21.43;;;2.50;99.90;;;;;;4965537;28;20225;-66
2021/12/11 08:15:56;;;;;;;42.70;18.30;;;2.50;99.90;;;;;;4972926;28;20295;-68
2021/12/11 08:18:24;;;;;;;48.50;21.30;;;2.60;99.90;;;;;;4971259;28;20255;-67
2021/12/11 08:20:51;;;;;;;41.57;19.17;;;2.50;99.90;;;;;;4967091;28;20259;-67
2021/12/11 08:23:19;;;;;;;46.17;20.83;;;2.50;99.90;;;;;;4974075;28;20244;-68
2021/12/11 08:25:49;;;;;;;40.77;20.40;;;2.60;99.90;;;;;;4973835;28;20559;-68
2021/12/11 08:28:20;;;;;;;46.83;21.13;;;2.50;99.90;;;;;;4973140;28;20311;-68
2021/12/11 08:30:50;;;;;;;46.77;20.17;;;2.50;99.90;;;;;;4972668;28;20200;-66
2021/12/11 08:33:17;;;;;;;46.17;20.73;;;2.50;99.90;;;;;;4969086;28;20208;-68
2021/12/11 08:35:46;;;;;;;41.07;20.30;;;2.50;99.90;;;;;;4972233;28;20609;-68
2021/12/11 08:38:14;;;;;;;47.73;21.47;;;2.50;99.90;;;;;;4973164;28;20232;-67
2021/12/11 08:40:48;;;;;;;41.60;20.07;;;2.60;99.90;;;;;;4971138;28;20225;-67
2021/12/11 08:43:17;;;;;;;44.83;21.43;;;2.60;99.90;;;;;;4973536;28;20642;-68
2021/12/11 08:46:03;;;;;;;48.60;20.67;;;2.60;99.90;;;;;;4972186;28;20468;-65
2021/12/11 08:48:31;;;;;;;44.47;21.17;;;2.60;99.90;;;;;;4971586;28;20681;-66
2021/12/11 08:51:03;;;;;;;44.20;21.20;;;2.50;99.90;;;;;;4970892;28;20208;-67
2021/12/11 08:53:31;;;;;;;46.90;21.43;;;2.50;99.90;;;;;;4972391;28;20311;-67
2021/12/11 08:55:58;;;;;;;50.33;23.87;;;2.40;99.90;;;;;;4972207;28;20284;-67
2021/12/11 08:58:29;;;;;;;48.10;22.70;;;2.40;99.90;;;;;;4968257;28;20327;-66
2021/12/11 09:01:00;;;;;;;46.63;21.00;;;2.40;99.90;;;;;;4970481;28;20315;-67
2021/12/11 09:03:34;;;;;;;43.23;21.37;;;2.50;99.90;;;;;;4970237;28;20224;-66
2021/12/11 09:06:09;;;;;;;45.03;21.00;;;2.50;99.90;;;;;;4969676;28;20288;-66
2021/12/11 09:08:41;;;;;;;49.17;22.77;;;2.50;99.90;;;;;;4971744;28;20247;-66
2021/12/11 09:11:13;;;;;;;50.20;22.23;;;2.50;99.90;;;;;;4971930;28;20604;-67
2021/12/11 09:13:45;;;;;;;49.80;22.40;;;2.50;99.90;;;;;;4971372;28;20236;-67
2021/12/11 09:16:18;;;;;;;51.80;23.47;;;2.50;99.90;;;;;;4971019;28;20316;-67
2021/12/11 09:18:51;;;;;;;49.97;23.17;;;2.40;99.90;;;;;;4970743;28;20209;-66
2021/12/11 09:21:25;;;;;;;51.33;23.53;;;2.40;99.90;;;;;;4973203;28;20212;-66
2021/12/11 09:24:02;;;;;;;49.47;23.17;;;2.40;99.90;;;;;;4974830;28;20210;-66
2021/12/11 09:26:33;;;;;;;48.87;23.27;;;2.40;99.90;;;;;;4975562;28;20440;-67
2021/12/11 09:29:05;;;;;;;48.17;23.47;;;2.40;99.90;;;;;;4976050;28;20284;-66
2021/12/11 09:31:39;;;;;;;48.60;22.47;;;2.40;99.90;;;;;;4975347;28;20287;-66
2021/12/11 09:34:08;;;;;;;55.17;25.73;;;2.40;99.90;;;;;;4975204;28;20207;-67
2021/12/11 09:36:42;;;;;;;45.67;22.87;;;2.40;99.90;;;;;;4975705;28;20209;-68
2021/12/11 09:39:12;;;;;;;51.93;23.80;;;2.50;99.90;;;;;;4975693;28;20291;-67
2021/12/11 09:41:38;;;;;;;55.87;25.17;;;2.50;99.90;;;;;;4975443;28;20316;-68
2021/12/11 09:44:11;;;;;;;45.97;22.33;;;2.50;99.90;;;;;;4975375;28;20201;-66
2021/12/11 09:46:41;;;;;;;49.00;24.27;;;2.60;99.90;;;;;;4975124;28;20300;-66
2021/12/11 09:49:10;;;;;;;56.07;25.10;;;2.60;99.90;;;;;;4975976;28;20661;-67
2021/12/11 09:51:43;;;;;;;53.40;23.50;;;2.70;99.90;;;;;;4987058;28;20204;-66
2021/12/11 09:54:13;;;;;;;49.87;23.97;;;2.80;99.90;;;;;;4974712;28;20209;-66
2021/12/11 09:56:43;;;;;;;53.07;24.03;;;2.90;99.90;;;;;;4980946;28;20323;-66
2021/12/11 09:59:17;;;;;;;50.33;22.07;;;3.00;99.90;;;;;;4986329;28;20610;-66
2021/12/11 10:01:47;;;;;;;50.93;23.20;;;3.10;99.90;;;;;;4993616;28;20327;-67
2021/12/11 10:04:19;;;;;;;52.53;23.93;;;3.20;99.90;;;;;;4993859;28;20268;-67
2021/12/11 10:07:12;;;;;;;48.30;23.50;;;3.30;99.90;;;;;;4994110;28;20295;-66
2021/12/11 10:09:46;;;;;;;49.20;24.50;;;3.30;99.90;;;;;;4993325;28;20212;-66
2021/12/11 10:12:16;;;;;;;49.70;23.53;;;3.40;99.90;;;;;;4982873;28;20621;-66
2021/12/11 10:14:51;;;;;;;51.23;24.40;;;3.40;99.90;;;;;;4974816;28;20304;-66
2021/12/11 10:17:23;;;;;;;52.47;24.93;;;3.50;99.90;;;;;;4981614;28;20199;-67
2021/12/11 10:19:52;;;;;;;52.07;25.43;;;3.60;99.90;;;;;;4993562;28;20200;-66
2021/12/11 10:22:23;;;;;;;53.57;25.30;;;3.50;99.90;;;;;;4987411;28;20295;-66
2021/12/11 10:24:51;;;;;;;56.67;24.93;;;3.70;99.90;;;;;;4987833;28;20243;-65
2021/12/11 10:27:22;;;;;;;46.93;23.93;;;3.70;99.90;;;;;;4973912;28;20201;-66
2021/12/11 10:29:52;;;;;;;49.33;23.50;;;3.80;99.90;;;;;;4975032;28;20213;-66
2021/12/11 10:32:23;;;;;;;45.57;23.93;;;3.80;99.90;;;;;;4987322;28;20292;-66
2021/12/11 10:34:53;;;;;;;45.23;23.20;;;3.90;99.90;;;;;;4979757;28;20299;-66
2021/12/11 10:37:24;;;;;;;50.27;24.10;;;3.90;99.90;;;;;;4992301;28;20299;-65
2021/12/11 10:39:53;;;;;;;48.43;24.10;;;4.00;99.90;;;;;;4993383;28;20212;-66
2021/12/11 10:42:21;;;;;;;51.17;23.87;;;4.00;99.90;;;;;;4992741;28;20208;-65
2021/12/11 10:44:54;;;;;;;55.63;24.90;;;4.00;99.90;;;;;;4984820;28;20347;-65
2021/12/11 10:47:24;;;;;;;51.23;24.27;;;4.00;99.90;;;;;;4988866;28;20291;-66
2021/12/11 10:49:52;;;;;;;52.33;24.83;;;4.00;99.90;;;;;;4979039;28;20621;-66
2021/12/11 10:52:22;;;;;;;54.10;25.87;;;4.10;99.90;;;;;;4977502;28;20226;-66
2021/12/11 10:54:52;;;;;;;55.43;24.87;;;4.10;99.90;;;;;;4988915;28;20625;-65
2021/12/11 10:57:20;;;;;;;60.27;26.97;;;4.00;99.90;;;;;;4983677;28;20279;-64
2021/12/11 10:59:49;;;;;;;54.70;25.50;;;4.10;99.90;;;;;;4977079;28;20254;-66
2021/12/11 11:02:21;;;;;;;64.70;27.50;;;4.10;99.90;;;;;;4982919;28;20605;-67
2021/12/11 11:04:51;;;;;;;59.13;26.83;;;4.10;99.90;;;;;;4974265;28;20269;-66
2021/12/11 11:07:18;;;;;;;65.53;28.30;;;4.10;99.90;;;;;;4981743;28;20628;-66
2021/12/11 11:09:46;;;;;;;66.70;29.37;;;4.10;99.90;;;;;;4992251;28;20213;-66
2021/12/11 11:12:16;;;;;;;64.63;28.37;;;4.10;99.90;;;;;;4992464;28;20647;-65
2021/12/11 11:14:43;;;;;;;64.60;28.57;;;4.10;99.90;;;;;;4991844;28;20312;-66
2021/12/11 11:17:15;;;;;;;67.57;29.23;;;4.20;99.90;;;;;;4980028;28;20595;-66
2021/12/11 11:19:45;;;;;;;61.87;27.57;;;4.10;99.90;;;;;;4978801;28;20292;-65
2021/12/11 11:22:17;;;;;;;67.37;27.67;;;4.20;99.90;;;;;;4991976;28;20659;-65
2021/12/11 11:24:48;;;;;;;67.67;29.53;;;4.20;99.90;;;;;;4993048;28;20239;-66
2021/12/11 11:27:16;;;;;;;65.60;30.00;;;4.20;99.90;;;;;;4992014;28;20283;-67
2021/12/11 11:29:45;;;;;;;62.07;29.17;;;4.20;99.90;;;;;;4977082;28;20672;-66
2021/12/11 11:32:19;;;;;;;61.07;27.87;;;4.20;99.90;;;;;;4991978;28;20212;-67
2021/12/11 11:34:48;;;;;;;66.90;29.37;;;4.20;99.90;;;;;;4986670;28;20303;-66
2021/12/11 11:37:20;;;;;;;72.23;28.77;;;4.20;99.90;;;;;;4990437;28;20208;-67
2021/12/11 11:39:52;;;;;;;60.40;27.63;;;4.20;99.90;;;;;;4992596;28;20559;-67
2021/12/11 11:42:22;;;;;;;62.63;29.50;;;4.20;99.90;;;;;;4990627;28;20735;-67
2021/12/11 11:44:50;;;;;;;65.07;28.90;;;4.20;99.90;;;;;;4983441;28;20247;-66
2021/12/11 11:47:20;;;;;;;65.03;28.93;;;4.20;99.90;;;;;;4973180;28;20673;-65
2021/12/11 11:49:55;;;;;;;57.03;27.97;;;4.20;99.90;;;;;;4977707;28;20212;-66
2021/12/11 11:52:23;;;;;;;64.37;29.50;;;4.10;99.90;;;;;;4986527;28;20509;-66
2021/12/11 11:54:53;;;;;;;62.43;30.20;;;4.10;99.90;;;;;;4979873;28;20208;-67
2021/12/11 11:57:23;;;;;;;60.70;27.27;;;4.10;99.90;;;;;;4978383;28;20236;-66
2021/12/11 11:59:53;;;;;;;67.80;27.23;;;4.10;99.90;;;;;;4973578;28;20295;-67
2021/12/11 12:02:23;;;;;;;62.43;27.77;;;4.00;99.90;;;;;;4972492;28;20242;-67
2021/12/11 12:04:57;;;;;;;59.43;27.70;;;4.00;99.90;;;;;;4972128;28;20280;-66
2021/12/11 12:07:28;;;;;;;59.50;27.60;;;3.90;99.90;;;;;;4962388;28;20288;-66
2021/12/11 12:09:58;;;;;;;57.40;26.97;;;3.90;99.90;;;;;;4972361;28;20243;-65
2021/12/11 12:12:25;;;;;;;58.27;28.03;;;3.90;99.90;;;;;;4966573;28;20596;-66
2021/12/11 12:14:54;;;;;;;65.03;28.77;;;3.90;99.90;;;;;;4970093;28;20303;-65
2021/12/11 12:17:24;;;;;;;56.50;28.37;;;3.80;99.90;;;;;;4972363;28;20209;-67
2021/12/11 12:19:54;;;;;;;59.70;27.33;;;3.80;99.90;;;;;;4971911;28;20311;-66
2021/12/11 12:22:27;;;;;;;62.80;28.33;;;3.70;99.90;;;;;;4971276;28;20523;-66
2021/12/11 12:24:56;;;;;;;65.53;28.63;;;3.70;99.90;;;;;;4972921;28;20292;-67
2021/12/11 12:27:26;;;;;;;57.57;27.97;;;3.60;99.90;;;;;;4969446;28;20296;-68
2021/12/11 12:29:54;;;;;;;66.93;28.63;;;3.70;99.90;;;;;;4971510;28;20292;-66
2021/12/11 12:32:25;;;;;;;61.00;28.93;;;3.70;99.90;;;;;;4961206;28;20291;-70
2021/12/11 12:34:56;;;;;;;60.07;28.67;;;3.70;99.90;;;;;;4970381;28;20212;-66
2021/12/11 12:37:24;;;;;;;62.37;29.03;;;3.70;99.90;;;;;;4965648;28;20247;-67
2021/12/11 12:39:59;;;;;;;67.37;29.60;;;3.70;99.90;;;;;;4971288;28;20625;-66
2021/12/11 12:42:34;;;;;;;64.50;30.13;;;3.70;99.90;;;;;;4969960;28;20251;-66
2021/12/11 12:45:07;;;;;;;62.93;29.20;;;3.70;99.90;;;;;;4963440;28;20633;-66
2021/12/11 12:47:38;;;;;;;64.80;28.77;;;3.70;99.90;;;;;;4971158;28;20323;-67
2021/12/11 12:50:11;;;;;;;65.60;29.83;;;3.80;99.90;;;;;;4975022;28;20287;-67
2021/12/11 12:52:42;;;;;;;68.57;30.63;;;3.80;99.90;;;;;;4972167;28;20729;-67